createdAt,value
2018-08-23T00:01:39.344Z,20.40
2018-08-23T00:03:43.525Z,20.40
2018-08-23T00:05:53.905Z,20.50
2018-08-23T00:08:09.170Z,20.40
2018-08-23T00:10:13.437Z,20.50
2018-08-23T00:12:17.734Z,20.50
2018-08-23T00:14:21.944Z,20.40
2018-08-23T00:16:38.384Z,20.40
2018-08-23T00:18:42.631Z,20.20
2018-08-23T00:20:46.824Z,20.30
2018-08-23T00:22:51.055Z,20.10
2018-08-23T00:24:55.378Z,20.20
2018-08-23T00:27:00.332Z,20.30
2018-08-23T00:29:05.682Z,20.20
2018-08-23T00:31:09.852Z,20.30
2018-08-23T00:33:14.067Z,20.20
2018-08-23T00:35:20.543Z,20.00
2018-08-23T00:37:24.722Z,20.00
2018-08-23T00:39:29.662Z,20.20
2018-08-23T00:41:33.871Z,20.20
2018-08-23T00:43:38.166Z,20.10
2018-08-23T00:45:42.346Z,20.20
2018-08-23T00:47:46.515Z,20.20
2018-08-23T00:49:50.738Z,20.20
2018-08-23T00:51:54.892Z,20.10
2018-08-23T00:54:04.945Z,20.10
2018-08-23T00:56:20.470Z,20.10
2018-08-23T00:58:24.631Z,20.10
2018-08-23T01:00:29.319Z,19.90
2018-08-23T01:02:33.541Z,19.80
2018-08-23T01:04:41.243Z,19.80
2018-08-23T01:06:46.036Z,19.90
2018-08-23T01:08:50.312Z,20.00
2018-08-23T01:10:54.658Z,19.90
2018-08-23T01:13:03.767Z,19.80
2018-08-23T01:15:08.101Z,19.70
2018-08-23T01:17:17.117Z,19.80
2018-08-23T01:19:26.551Z,19.90
2018-08-23T01:21:32.580Z,19.50
2018-08-23T01:23:37.490Z,19.60
2018-08-23T01:25:43.503Z,19.60
2018-08-23T01:27:47.764Z,19.50
2018-08-23T01:29:52.054Z,19.50
2018-08-23T01:32:15.852Z,19.60
2018-08-23T01:34:20.097Z,19.70
2018-08-23T01:36:32.108Z,19.60
2018-08-23T01:38:36.322Z,19.80
2018-08-23T01:40:40.534Z,19.70
2018-08-23T01:42:44.786Z,19.60
2018-08-23T01:44:48.947Z,19.60
2018-08-23T01:47:00.605Z,19.50
2018-08-23T01:49:06.612Z,19.70
2018-08-23T01:51:10.839Z,19.60
2018-08-23T01:53:15.106Z,19.60
2018-08-23T01:55:20.019Z,19.50
2018-08-23T01:57:29.489Z,19.30
2018-08-23T01:59:33.667Z,19.30
2018-08-23T02:01:37.910Z,19.40
2018-08-23T02:03:42.308Z,19.50
2018-08-23T02:05:46.506Z,19.60
2018-08-23T02:07:50.654Z,19.70
2018-08-23T02:09:54.857Z,19.60
2018-08-23T02:11:59.131Z,19.70
2018-08-23T02:14:03.430Z,19.60
2018-08-23T02:16:07.628Z,19.60
2018-08-23T02:18:11.872Z,19.50
2018-08-23T02:20:16.087Z,19.50
2018-08-23T02:22:20.303Z,19.60
2018-08-23T02:24:29.080Z,19.60
2018-08-23T02:26:33.313Z,19.50
2018-08-23T02:28:38.161Z,19.60
2018-08-23T02:30:58.877Z,19.60
2018-08-23T02:33:03.256Z,19.50
2018-08-23T02:35:07.486Z,19.40
2018-08-23T02:37:13.652Z,19.50
2018-08-23T02:39:17.962Z,19.50
2018-08-23T02:41:22.185Z,19.50
2018-08-23T02:43:26.457Z,19.60
2018-08-23T02:45:39.051Z,19.60
2018-08-23T02:47:43.624Z,19.70
2018-08-23T02:49:47.918Z,19.80
2018-08-23T02:51:52.767Z,19.80
2018-08-23T02:53:57.110Z,19.90
2018-08-23T02:56:06.378Z,19.80
2018-08-23T02:58:10.561Z,19.60
2018-08-23T03:00:14.821Z,19.40
2018-08-23T03:02:19.068Z,19.30
2018-08-23T03:04:26.180Z,19.50
2018-08-23T03:06:34.823Z,19.50
2018-08-23T03:08:44.523Z,19.60
2018-08-23T03:10:48.726Z,19.70
2018-08-23T03:12:53.154Z,19.60
2018-08-23T03:14:57.282Z,19.70
2018-08-23T03:17:39.727Z,19.70
2018-08-23T03:20:04.377Z,19.70
2018-08-23T03:22:08.638Z,19.60
2018-08-23T03:24:13.022Z,19.60
2018-08-23T03:26:17.230Z,19.50
2018-08-23T03:28:21.443Z,19.60
2018-08-23T03:30:25.770Z,19.60
2018-08-23T03:32:30.278Z,19.60
2018-08-23T03:34:34.586Z,19.60
2018-08-23T03:36:38.748Z,19.60
2018-08-23T03:38:42.998Z,19.70
2018-08-23T03:40:47.201Z,19.50
2018-08-23T03:42:51.390Z,19.40
2018-08-23T03:44:56.531Z,19.20
2018-08-23T03:47:00.904Z,19.30
2018-08-23T03:49:07.038Z,19.30
2018-08-23T03:51:11.243Z,19.00
2018-08-23T03:53:15.416Z,18.90
2018-08-23T03:55:21.007Z,18.90
2018-08-23T03:57:29.234Z,19.10
2018-08-23T03:59:33.827Z,19.30
2018-08-23T04:01:38.004Z,19.10
2018-08-23T04:03:42.361Z,19.10
2018-08-23T04:05:46.570Z,19.00
2018-08-23T04:07:50.750Z,19.00
2018-08-23T04:09:54.994Z,19.00
2018-08-23T04:11:59.289Z,19.00
2018-08-23T04:14:03.627Z,19.20
2018-08-23T04:16:07.936Z,19.20
2018-08-23T04:18:15.500Z,19.10
2018-08-23T04:20:19.807Z,19.20
2018-08-23T04:22:24.047Z,19.20
2018-08-23T04:24:28.239Z,19.20
2018-08-23T04:26:32.385Z,19.30
2018-08-23T04:28:36.583Z,19.30
2018-08-23T04:30:40.774Z,19.10
2018-08-23T04:32:48.124Z,19.20
2018-08-23T04:34:52.346Z,19.30
2018-08-23T04:36:56.487Z,19.30
2018-08-23T04:39:06.904Z,19.20
2018-08-23T04:41:13.717Z,19.30
2018-08-23T04:43:17.935Z,19.40
2018-08-23T04:45:28.139Z,19.20
2018-08-23T04:47:32.330Z,19.20
2018-08-23T04:49:36.501Z,19.20
2018-08-23T04:51:41.643Z,19.20
2018-08-23T04:53:46.730Z,19.30
2018-08-23T04:55:50.954Z,19.20
2018-08-23T04:57:56.403Z,19.30
2018-08-23T05:00:01.356Z,19.30
2018-08-23T05:02:05.535Z,19.30
2018-08-23T05:04:09.802Z,19.20
2018-08-23T05:06:13.994Z,19.20
2018-08-23T05:08:18.221Z,19.20
2018-08-23T05:10:22.445Z,19.30
2018-08-23T05:12:27.397Z,19.30
2018-08-23T05:14:31.615Z,19.30
2018-08-23T05:16:35.871Z,19.40
2018-08-23T05:18:40.071Z,19.40
2018-08-23T05:20:44.283Z,19.30
2018-08-23T05:22:53.837Z,19.30
2018-08-23T05:25:03.078Z,19.30
2018-08-23T05:27:07.258Z,19.30
2018-08-23T05:29:11.496Z,19.30
2018-08-23T05:31:15.739Z,19.20
2018-08-23T05:33:21.917Z,19.20
2018-08-23T05:35:26.147Z,19.30
2018-08-23T05:37:30.334Z,19.40
2018-08-23T05:39:45.739Z,19.40
2018-08-23T05:41:51.493Z,19.40
2018-08-23T05:44:09.560Z,19.30
2018-08-23T05:46:13.786Z,19.30
2018-08-23T05:48:36.585Z,19.40
2018-08-23T05:50:40.762Z,19.40
2018-08-23T05:52:45.153Z,19.40
2018-08-23T05:54:49.326Z,19.40
2018-08-23T05:56:53.581Z,19.50
2018-08-23T05:59:01.863Z,19.50
2018-08-23T06:01:06.138Z,19.40
2018-08-23T06:03:10.461Z,19.40
2018-08-23T06:05:14.658Z,19.50
2018-08-23T06:07:18.870Z,19.50
2018-08-23T06:09:23.077Z,19.40
2018-08-23T06:11:27.296Z,19.50
2018-08-23T06:13:32.599Z,19.50
2018-08-23T06:15:41.761Z,19.40
2018-08-23T06:17:45.904Z,19.30
2018-08-23T06:19:50.051Z,19.30
2018-08-23T06:21:54.214Z,19.30
2018-08-23T06:24:03.640Z,19.50
2018-08-23T06:26:07.790Z,19.60
2018-08-23T06:28:21.778Z,19.60
2018-08-23T06:30:26.605Z,19.60
2018-08-23T06:32:33.760Z,19.40
2018-08-23T06:34:52.885Z,19.60
2018-08-23T06:36:57.098Z,19.50
2018-08-23T06:39:01.407Z,19.60
2018-08-23T06:41:07.290Z,19.50
2018-08-23T06:43:11.433Z,19.50
2018-08-23T06:45:15.706Z,19.60
2018-08-23T06:47:22.310Z,19.50
2018-08-23T06:49:26.600Z,19.60
2018-08-23T06:51:30.845Z,19.70
2018-08-23T06:53:52.634Z,19.70
2018-08-23T06:55:56.833Z,19.70
2018-08-23T06:58:02.052Z,19.70
2018-08-23T07:00:06.815Z,19.70
2018-08-23T07:02:11.102Z,19.70
2018-08-23T07:04:15.442Z,19.80
2018-08-23T07:06:20.476Z,19.70
2018-08-23T07:08:24.759Z,19.50
2018-08-23T07:10:28.928Z,19.50
2018-08-23T07:12:33.239Z,19.60
2018-08-23T07:14:37.524Z,19.70
2018-08-23T07:16:43.030Z,19.60
2018-08-23T07:18:47.266Z,19.30
2018-08-23T07:20:51.475Z,19.50
2018-08-23T07:22:55.710Z,19.50
2018-08-23T07:24:59.968Z,19.40
2018-08-23T07:27:04.353Z,19.60
2018-08-23T07:29:08.550Z,19.40
2018-08-23T07:31:12.743Z,19.40
2018-08-23T07:33:16.997Z,19.50
2018-08-23T07:35:21.710Z,19.60
2018-08-23T07:37:26.034Z,19.70
2018-08-23T07:39:30.278Z,19.80
2018-08-23T07:41:34.515Z,19.90
2018-08-23T07:43:49.477Z,20.00
2018-08-23T07:45:55.573Z,20.10
2018-08-23T07:47:59.836Z,20.00
2018-08-23T07:50:04.134Z,19.90
2018-08-23T07:52:08.398Z,19.80
2018-08-23T07:54:19.346Z,19.60
2018-08-23T07:56:27.667Z,19.50
2018-08-23T07:58:31.821Z,19.60
2018-08-23T08:00:40.953Z,19.60
2018-08-23T08:02:45.187Z,19.50
2018-08-23T08:04:49.404Z,19.50
2018-08-23T08:06:53.621Z,19.70
2018-08-23T08:08:59.379Z,19.70
2018-08-23T08:11:03.725Z,19.70
2018-08-23T08:13:07.903Z,19.70
2018-08-23T08:15:12.796Z,19.70
2018-08-23T08:17:21.834Z,19.50
2018-08-23T08:19:26.185Z,19.70
2018-08-23T08:21:30.543Z,19.80
2018-08-23T08:23:34.790Z,19.80
2018-08-23T08:25:38.992Z,19.80
2018-08-23T08:27:43.235Z,19.90
2018-08-23T08:29:47.483Z,19.80
2018-08-23T08:31:51.801Z,19.70
2018-08-23T08:33:59.156Z,19.80
2018-08-23T08:36:04.239Z,19.90
2018-08-23T08:38:08.383Z,19.90
2018-08-23T08:40:18.498Z,19.90
2018-08-23T08:42:30.161Z,19.90
2018-08-23T08:44:34.435Z,20.10
2018-08-23T08:46:38.656Z,20.00
2018-08-23T08:48:42.930Z,20.00
2018-08-23T08:51:01.806Z,19.90
2018-08-23T08:53:06.122Z,20.00
2018-08-23T08:55:12.971Z,20.10
2018-08-23T08:57:17.275Z,20.10
2018-08-23T08:59:21.582Z,20.10
2018-08-23T09:01:25.810Z,20.20
2018-08-23T09:03:33.505Z,20.20
2018-08-23T09:05:37.700Z,20.20
2018-08-23T09:07:44.111Z,20.30
2018-08-23T09:09:48.396Z,20.10
2018-08-23T09:11:52.576Z,20.10
2018-08-23T09:13:58.319Z,20.00
2018-08-23T09:16:06.960Z,20.10
2018-08-23T09:18:11.195Z,20.00
2018-08-23T09:20:16.639Z,20.20
2018-08-23T09:22:20.910Z,20.20
2018-08-23T09:24:28.302Z,20.20
2018-08-23T09:26:40.082Z,20.30
2018-08-23T09:28:44.312Z,20.40
2018-08-23T09:30:48.536Z,20.60
2018-08-23T09:32:52.780Z,20.60
2018-08-23T09:35:04.883Z,20.80
2018-08-23T09:37:09.180Z,20.70
2018-08-23T09:39:13.358Z,20.80
2018-08-23T09:41:17.614Z,20.90
2018-08-23T09:43:22.190Z,20.70
2018-08-23T09:45:26.807Z,20.60
2018-08-23T09:47:31.429Z,20.60
2018-08-23T09:49:35.564Z,20.70
2018-08-23T09:51:39.730Z,20.80
2018-08-23T09:53:43.937Z,20.90
2018-08-23T09:55:48.861Z,21.00
2018-08-23T09:57:53.033Z,21.10
2018-08-23T09:59:57.871Z,21.10
2018-08-23T10:02:07.383Z,21.10
2018-08-23T10:04:16.739Z,21.20
2018-08-23T10:06:24.035Z,21.20
2018-08-23T10:08:33.438Z,21.30
2018-08-23T10:10:42.775Z,21.60
2018-08-23T10:12:52.090Z,21.60
2018-08-23T10:15:01.461Z,21.70
2018-08-23T10:17:10.918Z,21.80
2018-08-23T10:19:20.150Z,21.70
2018-08-23T10:21:29.427Z,21.70
2018-08-23T10:23:33.622Z,21.70
2018-08-23T10:25:42.231Z,21.60
2018-08-23T10:27:46.354Z,21.60
2018-08-23T10:29:50.586Z,21.50
2018-08-23T10:31:54.790Z,21.60
2018-08-23T10:33:58.973Z,21.70
2018-08-23T10:36:03.184Z,21.60
2018-08-23T10:38:08.115Z,21.70
2018-08-23T10:40:12.327Z,21.70
2018-08-23T10:42:17.266Z,21.90
2018-08-23T10:44:21.537Z,22.00
2018-08-23T10:46:25.743Z,22.00
2018-08-23T10:48:29.975Z,21.90
2018-08-23T10:50:34.222Z,21.70
2018-08-23T10:52:38.407Z,21.70
2018-08-23T10:54:42.577Z,21.60
2018-08-23T10:56:46.797Z,21.70
2018-08-23T10:58:51.515Z,21.50
2018-08-23T11:00:58.210Z,21.60
2018-08-23T11:03:02.515Z,21.70
2018-08-23T11:05:06.754Z,21.70
2018-08-23T11:07:11.153Z,21.60
2018-08-23T11:09:20.495Z,21.60
2018-08-23T11:11:29.707Z,21.70
2018-08-23T11:13:39.163Z,21.60
2018-08-23T11:15:43.428Z,21.50
2018-08-23T11:18:52.491Z,21.50
2018-08-23T11:20:56.743Z,21.50
2018-08-23T11:23:01.004Z,21.40
2018-08-23T11:25:05.620Z,21.50
2018-08-23T11:27:10.949Z,21.50
2018-08-23T11:29:15.169Z,21.60
2018-08-23T11:31:24.623Z,21.70
2018-08-23T11:33:28.803Z,21.70
2018-08-23T11:35:33.014Z,21.80
2018-08-23T11:37:37.273Z,21.70
2018-08-23T11:39:41.450Z,21.70
2018-08-23T11:41:45.664Z,21.70
2018-08-23T11:43:49.976Z,21.60
2018-08-23T11:45:59.802Z,21.50
2018-08-23T11:48:04.053Z,21.60
2018-08-23T11:50:08.293Z,21.60
2018-08-23T11:52:12.570Z,21.60
2018-08-23T11:54:16.769Z,21.60
2018-08-23T11:56:20.973Z,21.70
2018-08-23T11:58:25.532Z,21.80
2018-08-23T12:00:29.676Z,21.80
2018-08-23T12:02:33.955Z,22.00
2018-08-23T12:04:38.091Z,22.30
2018-08-23T12:06:42.235Z,22.30
2018-08-23T12:08:46.754Z,22.20
2018-08-23T12:10:51.027Z,22.20
2018-08-23T12:12:55.491Z,22.10
2018-08-23T12:15:02.998Z,22.00
2018-08-23T12:17:07.207Z,22.10
2018-08-23T12:19:11.431Z,22.10
2018-08-23T12:21:15.700Z,22.30
2018-08-23T12:23:20.036Z,22.30
2018-08-23T12:25:24.230Z,22.30
2018-08-23T12:27:28.379Z,22.40
2018-08-23T12:29:32.651Z,22.30
2018-08-23T12:31:37.266Z,22.20
2018-08-23T12:33:41.383Z,22.10
2018-08-23T12:35:45.660Z,22.00
2018-08-23T12:38:00.635Z,22.00
2018-08-23T12:40:10.113Z,22.10
2018-08-23T12:42:19.375Z,22.00
2018-08-23T12:44:23.552Z,22.00
2018-08-23T12:46:27.801Z,22.00
2018-08-23T12:48:31.996Z,21.90
2018-08-23T12:50:36.186Z,22.00
2018-08-23T12:52:40.372Z,22.00
2018-08-23T12:54:44.598Z,22.00
2018-08-23T12:56:48.811Z,22.00
2018-08-23T12:58:53.016Z,22.10
2018-08-23T13:00:57.241Z,22.30
2018-08-23T13:03:01.560Z,22.70
2018-08-23T13:05:05.688Z,23.70
2018-08-23T13:07:09.912Z,23.90
2018-08-23T13:09:14.191Z,23.80
2018-08-23T13:11:18.386Z,23.40
2018-08-23T13:13:22.616Z,23.10
2018-08-23T13:15:26.775Z,22.80
2018-08-23T13:17:31.095Z,22.70
2018-08-23T13:19:47.323Z,22.70
2018-08-23T13:22:08.143Z,22.70
2018-08-23T13:24:12.631Z,22.80
2018-08-23T13:26:18.127Z,22.70
2018-08-23T13:28:22.383Z,22.70
2018-08-23T13:30:27.600Z,22.70
2018-08-23T13:32:31.957Z,22.60
2018-08-23T13:34:36.240Z,22.50
2018-08-23T13:36:40.491Z,22.40
2018-08-23T13:38:44.980Z,22.40
2018-08-23T13:40:49.377Z,22.40
2018-08-23T13:42:53.622Z,22.60
2018-08-23T13:44:57.977Z,22.60
2018-08-23T13:47:02.178Z,22.60
2018-08-23T13:49:06.417Z,22.60
2018-08-23T13:51:10.567Z,22.60
2018-08-23T13:53:14.770Z,22.50
2018-08-23T13:55:19.049Z,22.50
2018-08-23T13:57:23.190Z,22.50
2018-08-23T13:59:27.555Z,22.50
2018-08-23T14:01:31.760Z,22.50
2018-08-23T14:03:36.032Z,22.40
2018-08-23T14:05:41.318Z,22.30
2018-08-23T14:07:45.657Z,22.40
2018-08-23T14:09:49.791Z,22.50
2018-08-23T14:11:54.014Z,22.50
2018-08-23T14:13:58.208Z,22.50
2018-08-23T14:16:05.294Z,22.50
2018-08-23T14:18:09.599Z,22.40
2018-08-23T14:20:13.862Z,22.30
2018-08-23T14:22:18.105Z,22.30
2018-08-23T14:24:22.391Z,22.20
2018-08-23T14:26:26.642Z,22.20
2018-08-23T14:28:30.886Z,22.30
2018-08-23T14:30:35.111Z,22.30
2018-08-23T14:32:39.341Z,22.40
2018-08-23T14:34:43.589Z,22.40
2018-08-23T14:36:47.748Z,22.40
2018-08-23T14:38:51.932Z,22.40
2018-08-23T14:40:56.289Z,22.30
2018-08-23T14:43:00.590Z,22.20
2018-08-23T14:45:05.028Z,22.20
2018-08-23T14:47:14.381Z,22.20
2018-08-23T14:49:23.724Z,22.10
2018-08-23T14:51:28.071Z,22.20
2018-08-23T14:53:32.271Z,22.30
2018-08-23T14:55:41.614Z,22.30
2018-08-23T14:57:45.815Z,22.30
2018-08-23T14:59:50.016Z,22.40
2018-08-23T15:01:54.223Z,22.40
2018-08-23T15:03:58.417Z,22.70
2018-08-23T15:06:02.622Z,22.80
2018-08-23T15:08:06.803Z,23.20
2018-08-23T15:10:11.045Z,23.60
2018-08-23T15:12:15.238Z,23.50
2018-08-23T15:14:19.648Z,23.20
2018-08-23T15:16:23.730Z,23.00
2018-08-23T15:18:27.962Z,22.90
2018-08-23T15:20:32.182Z,23.00
2018-08-23T15:22:36.379Z,23.50
2018-08-23T15:24:40.651Z,23.90
2018-08-23T15:26:45.189Z,23.70
2018-08-23T15:28:49.410Z,23.70
2018-08-23T15:30:53.605Z,24.20
2018-08-23T15:32:57.780Z,24.10
2018-08-23T15:35:02.030Z,24.00
2018-08-23T15:37:06.560Z,23.70
2018-08-23T15:39:15.063Z,23.40
2018-08-23T15:41:19.280Z,23.30
2018-08-23T15:43:23.437Z,23.20
2018-08-23T15:45:27.759Z,23.10
2018-08-23T15:47:32.800Z,23.00
2018-08-23T15:49:37.118Z,23.00
2018-08-23T15:51:41.967Z,23.00
2018-08-23T15:53:46.194Z,23.00
2018-08-23T15:55:50.453Z,23.00
2018-08-23T15:57:54.559Z,22.80
2018-08-23T15:59:58.806Z,22.80
2018-08-23T16:02:03.107Z,22.70
2018-08-23T16:04:07.359Z,22.70
2018-08-23T16:06:11.575Z,22.70
2018-08-23T16:08:15.710Z,22.80
2018-08-23T16:10:20.037Z,22.70
2018-08-23T16:12:24.192Z,22.70
2018-08-23T16:14:28.350Z,22.60
2018-08-23T16:16:37.996Z,22.60
2018-08-23T16:18:47.370Z,22.70
2018-08-23T16:20:59.932Z,22.80
2018-08-23T16:23:04.229Z,22.90
2018-08-23T16:25:08.453Z,23.00
2018-08-23T16:27:12.701Z,22.90
2018-08-23T16:29:16.929Z,22.90
2018-08-23T16:31:21.229Z,22.80
2018-08-23T16:33:25.471Z,22.80
2018-08-23T16:35:29.711Z,22.70
2018-08-23T16:37:35.604Z,23.10
2018-08-23T16:39:39.781Z,23.50
2018-08-23T16:41:44.008Z,23.70
2018-08-23T16:43:48.273Z,23.90
2018-08-23T16:45:52.505Z,24.20
2018-08-23T16:47:57.089Z,24.10
2018-08-23T16:50:01.346Z,23.80
2018-08-23T16:52:05.773Z,23.60
2018-08-23T16:54:10.030Z,23.30
2018-08-23T16:56:14.839Z,23.10
2018-08-23T16:58:19.172Z,23.00
2018-08-23T17:00:23.396Z,22.90
2018-08-23T17:02:27.647Z,22.70
2018-08-23T17:04:37.051Z,22.70
2018-08-23T17:06:41.304Z,22.70
2018-08-23T17:08:45.511Z,22.60
2018-08-23T17:10:49.762Z,22.40
2018-08-23T17:12:53.997Z,22.40
2018-08-23T17:14:58.234Z,22.40
2018-08-23T17:17:07.535Z,22.40
2018-08-23T17:19:11.818Z,22.30
2018-08-23T17:21:16.046Z,22.30
2018-08-23T17:23:20.316Z,22.30
2018-08-23T17:25:24.551Z,22.20
2018-08-23T17:27:28.727Z,22.20
2018-08-23T17:29:32.951Z,22.20
2018-08-23T17:31:37.146Z,22.20
2018-08-23T17:33:41.763Z,22.20
2018-08-23T17:35:45.968Z,22.20
2018-08-23T17:37:50.110Z,22.10
2018-08-23T17:39:54.305Z,22.10
2018-08-23T17:41:58.602Z,22.10
2018-08-23T17:44:02.842Z,22.20
2018-08-23T17:46:07.041Z,22.20
2018-08-23T17:48:11.268Z,22.20
2018-08-23T17:50:15.548Z,22.20
2018-08-23T17:52:19.790Z,22.10
2018-08-23T17:54:23.984Z,22.00
2018-08-23T17:56:28.285Z,22.00
2018-08-23T17:58:32.459Z,22.00
2018-08-23T18:00:36.838Z,22.00
2018-08-23T18:02:41.020Z,22.00
2018-08-23T18:04:45.264Z,22.00
2018-08-23T18:06:49.477Z,22.00
2018-08-23T18:08:53.706Z,21.90
2018-08-23T18:10:57.964Z,21.90
2018-08-23T18:13:02.258Z,21.90
2018-08-23T18:15:09.026Z,21.90
2018-08-23T18:17:13.226Z,21.80
2018-08-23T18:19:17.586Z,21.70
2018-08-23T18:21:21.859Z,21.80
2018-08-23T18:23:26.506Z,21.80
2018-08-23T18:25:31.021Z,21.70
2018-08-23T18:27:35.291Z,21.70
2018-08-23T18:29:39.447Z,21.70
2018-08-23T18:31:44.510Z,21.60
2018-08-23T18:33:48.791Z,21.70
2018-08-23T18:35:52.969Z,21.70
2018-08-23T18:37:57.163Z,21.70
2018-08-23T18:40:01.333Z,21.70
2018-08-23T18:42:05.574Z,21.80
2018-08-23T18:44:09.768Z,21.70
2018-08-23T18:46:14.022Z,21.70
2018-08-23T18:48:18.237Z,21.70
2018-08-23T18:50:22.474Z,21.60
2018-08-23T18:52:26.883Z,21.50
2018-08-23T18:54:31.069Z,21.50
2018-08-23T18:56:35.396Z,21.60
2018-08-23T18:58:39.624Z,21.60
2018-08-23T19:00:43.732Z,21.50
2018-08-23T19:02:47.963Z,21.50
2018-08-23T19:04:53.039Z,21.50
2018-08-23T19:06:57.262Z,21.40
2018-08-23T19:09:01.431Z,21.40
2018-08-23T19:11:06.105Z,21.40
2018-08-23T19:13:10.363Z,21.40
2018-08-23T19:15:14.627Z,21.40
2018-08-23T19:17:23.939Z,21.30
2018-08-23T19:19:28.127Z,21.20
2018-08-23T19:21:32.387Z,21.20
2018-08-23T19:23:36.630Z,21.20
2018-08-23T19:25:40.790Z,21.20
2018-08-23T19:27:44.974Z,21.20
2018-08-23T19:29:49.354Z,21.30
2018-08-23T19:31:53.582Z,21.10
2018-08-23T19:33:57.828Z,21.10
2018-08-23T19:36:02.003Z,21.20
2018-08-23T19:38:06.215Z,21.10
2018-08-23T19:40:10.478Z,21.00
2018-08-23T19:42:14.657Z,21.20
2018-08-23T19:44:19.263Z,21.20
2018-08-23T19:46:28.747Z,21.10
2018-08-23T19:48:33.215Z,21.20
2018-08-23T19:50:37.452Z,21.20
2018-08-23T19:52:41.634Z,21.20
2018-08-23T19:54:45.839Z,21.20
2018-08-23T19:56:53.183Z,21.00
2018-08-23T19:58:57.526Z,20.90
2018-08-23T20:01:01.788Z,20.90
2018-08-23T20:03:06.459Z,20.90
2018-08-23T20:05:11.561Z,21.00
2018-08-23T20:07:16.390Z,21.10
2018-08-23T20:09:20.640Z,21.00
2018-08-23T20:11:24.886Z,21.10
2018-08-23T20:13:29.167Z,21.00
2018-08-23T20:15:33.411Z,21.10
2018-08-23T20:17:37.682Z,21.10
2018-08-23T20:19:41.942Z,21.10
2018-08-23T20:21:46.182Z,21.00
2018-08-23T20:23:51.479Z,21.00
2018-08-23T20:25:55.690Z,20.90
2018-08-23T20:28:00.029Z,20.80
2018-08-23T20:30:04.395Z,20.80
2018-08-23T20:32:08.623Z,20.70
2018-08-23T20:34:12.822Z,20.60
2018-08-23T20:36:16.983Z,20.70
2018-08-23T20:38:21.192Z,20.70
2018-08-23T20:40:25.311Z,20.70
2018-08-23T20:42:29.998Z,20.80
2018-08-23T20:44:34.191Z,20.70
2018-08-23T20:46:38.824Z,20.60
2018-08-23T20:48:43.071Z,20.70
2018-08-23T20:50:47.244Z,20.80
2018-08-23T20:52:51.641Z,20.80
2018-08-23T20:54:55.770Z,20.80
2018-08-23T20:56:59.960Z,20.80
2018-08-23T20:59:04.173Z,20.60
2018-08-23T21:01:10.180Z,20.50
2018-08-23T21:03:14.514Z,20.50
2018-08-23T21:05:19.083Z,20.30
2018-08-23T21:07:23.437Z,20.40
2018-08-23T21:09:32.865Z,20.30
2018-08-23T21:11:37.512Z,20.40
2018-08-23T21:13:41.709Z,20.30
2018-08-23T21:15:45.913Z,20.10
2018-08-23T21:17:50.203Z,19.90
2018-08-23T21:19:54.527Z,19.90
2018-08-23T21:21:59.050Z,20.00
2018-08-23T21:24:03.219Z,20.10
2018-08-23T21:26:07.492Z,20.00
2018-08-23T21:28:11.799Z,20.00
2018-08-23T21:30:16.118Z,19.80
2018-08-23T21:32:20.311Z,19.60
2018-08-23T21:34:24.611Z,19.40
2018-08-23T21:36:29.325Z,19.60
2018-08-23T21:38:33.515Z,19.70
2018-08-23T21:40:37.746Z,19.60
2018-08-23T21:42:41.916Z,19.60
2018-08-23T21:44:46.067Z,19.60
2018-08-23T21:46:50.376Z,19.80
2018-08-23T21:48:54.547Z,19.70
2018-08-23T21:50:58.762Z,20.00
2018-08-23T21:53:03.026Z,19.90
2018-08-23T21:55:07.236Z,20.00
2018-08-23T21:57:11.515Z,20.00
2018-08-23T21:59:15.763Z,19.90
2018-08-23T22:01:19.861Z,20.10
2018-08-23T22:03:24.424Z,20.30
2018-08-23T22:05:28.659Z,20.40
2018-08-23T22:07:32.829Z,20.40
2018-08-23T22:09:37.095Z,20.60
2018-08-23T22:11:42.210Z,20.00
2018-08-23T22:13:46.391Z,19.50
2018-08-23T22:15:50.678Z,19.00
2018-08-23T22:17:55.077Z,18.90
2018-08-23T22:19:59.353Z,19.10
2018-08-23T22:22:03.509Z,19.60
2018-08-23T22:24:07.776Z,19.00
2018-08-23T22:26:12.026Z,18.50
2018-08-23T22:28:16.290Z,18.90
2018-08-23T22:30:20.869Z,19.20
2018-08-23T22:32:25.086Z,18.90
2018-08-23T22:34:29.312Z,18.60
2018-08-23T22:36:33.509Z,18.30
2018-08-23T22:38:37.669Z,18.70
2018-08-23T22:40:41.912Z,18.00
2018-08-23T22:42:46.106Z,18.40
2018-08-23T22:44:50.351Z,18.00
2018-08-23T22:46:54.644Z,18.50
2018-08-23T22:48:58.859Z,18.90
2018-08-23T22:51:03.100Z,19.20
2018-08-23T22:53:07.366Z,18.60
2018-08-23T22:55:11.575Z,18.20
2018-08-23T22:57:15.855Z,18.00
2018-08-23T22:59:20.102Z,18.20
2018-08-23T23:01:24.286Z,18.20
2018-08-23T23:03:33.664Z,18.40
2018-08-23T23:05:37.879Z,17.80
2018-08-23T23:07:42.078Z,17.70
2018-08-23T23:09:46.270Z,18.20
2018-08-23T23:11:50.528Z,18.40
2018-08-23T23:13:54.766Z,18.10
2018-08-23T23:15:58.958Z,17.60
2018-08-23T23:18:03.207Z,18.00
2018-08-23T23:20:07.882Z,18.00
2018-08-23T23:22:12.067Z,18.10
2018-08-23T23:24:21.337Z,18.20
2018-08-23T23:26:25.606Z,18.00
2018-08-23T23:28:29.810Z,18.20
2018-08-23T23:30:34.408Z,18.10
2018-08-23T23:32:38.544Z,18.20
2018-08-23T23:34:42.737Z,18.40
2018-08-23T23:36:47.045Z,18.10
2018-08-23T23:38:51.263Z,17.90
2018-08-23T23:40:55.591Z,18.00
2018-08-23T23:42:59.840Z,17.60
2018-08-23T23:45:04.019Z,17.90
2018-08-23T23:47:08.651Z,17.80
2018-08-23T23:49:12.963Z,17.80
2018-08-23T23:51:17.134Z,18.00
2018-08-23T23:53:21.358Z,18.10
2018-08-23T23:55:25.838Z,18.10
2018-08-23T23:57:30.338Z,18.00
2018-08-23T23:59:34.577Z,17.90
